Details for SpiceJet at VIDP




Go Back


Latest METAR
Local Time

VIDP 022100Z 28004KT 3000 HZ FEW100 20/07 Q1011 NOSIG
03/04/2020, 03:02:22

Description
Results
SpiceJet Logo
Number of Pilots based at VIDP
0 Pilots Based here
Number of SpiceJet Flights Departed from VIDP
2 Flights Departed
Number of SpiceJet Flights Arrived at VIDP
2 Flights Arrived
Number of SpiceJet Schedules Departing from VIDP
54 Schedules
Number of SpiceJet Schedules Arriving at VIDP
52 Schedules
Number of SpiceJet Schedules Departing from VIDP availible today
48 Schedules Today
Number of SpiceJet Schedules Arriving at VIDP availible today
47 Schedules Today
Average Landing Rate at VIDP
-208 fpm
SpiceJet Average Landing Rate at VIDP
-133 fpm
Total Fuel Purchased at VIDP by SpiceJet
3,494.48 kgs / 7,703.93 lbs

Pilots Based at VIDP


Pilot ID
Pilot Name
Pilot Rank
No. of Flights
No. of Flying Hours
There are no pilots assigned to this hub!   Will you be the first?